Time;durP1;ratioP1;P1;durP2;ratioP2;P2;SDS_P1;SDS_P2;PMS_P1;PMS_P2;Temp;Humidity;BMP_temperature;BMP_pressure;BME280_temperature;BME280_humidity;BME280_pressure;Samples;Min_cycle;Max_cycle;Signal;HPM_P1;HPM_P2
2021/07/12 00:01:22;;;;;;;5.55;3.05;;;;;;;17.18;85.47;99928.66;5013798;28;20050;-73
2021/07/12 00:03:49;;;;;;;8.75;3.03;;;;;;;17.14;85.76;99926.38;5014787;28;20081;-74
2021/07/12 00:06:16;;;;;;;3.60;2.97;;;;;;;17.15;85.64;99918.16;5013513;28;20065;-74
2021/07/12 00:08:42;;;;;;;4.45;3.15;;;;;;;17.21;85.49;99917.56;5014583;28;20396;-74
2021/07/12 00:11:09;;;;;;;5.20;2.50;;;;;;;17.17;85.90;99926.09;5013935;28;20328;-73
2021/07/12 00:13:36;;;;;;;5.18;3.45;;;;;;;17.12;85.93;99922.97;5018348;28;20108;-75
2021/07/12 00:16:04;;;;;;;5.63;3.22;;;;;;;17.06;86.13;99919.84;5018172;28;20107;-75
2021/07/12 00:18:32;;;;;;;4.45;3.08;;;;;;;17.02;85.93;99914.88;5018144;28;20432;-76
2021/07/12 00:20:59;;;;;;;8.88;3.60;;;;;;;17.04;86.06;99921.84;5029610;28;20049;-72
2021/07/12 00:23:26;;;;;;;5.80;3.80;;;;;;;17.07;85.69;99920.72;5036808;28;20053;-73
2021/07/12 00:25:53;;;;;;;5.20;3.50;;;;;;;16.99;85.61;99904.38;5036725;28;20104;-73
2021/07/12 00:28:19;;;;;;;5.63;3.50;;;;;;;16.99;86.24;99909.75;5036874;28;20103;-73
2021/07/12 00:30:46;;;;;;;6.38;3.65;;;;;;;16.93;86.52;99908.47;5036754;28;20049;-75
2021/07/12 00:33:13;;;;;;;5.25;3.42;;;;;;;16.93;86.56;99903.94;5038079;28;20049;-73
2021/07/12 00:35:39;;;;;;;8.02;3.83;;;;;;;16.80;87.37;99897.97;5037564;28;20127;-75
2021/07/12 00:38:06;;;;;;;6.30;3.30;;;;;;;16.78;87.75;99894.56;5036612;28;20049;-75
2021/07/12 00:40:33;;;;;;;4.30;3.25;;;;;;;16.68;87.88;99890.00;5040156;28;20050;-71
2021/07/12 00:43:00;;;;;;;4.40;3.38;;;;;;;16.67;87.91;99888.31;5040988;28;20136;-72
2021/07/12 00:45:29;;;;;;;7.03;3.85;;;;;;;16.64;88.21;99888.59;5041555;28;20380;-76
2021/07/12 00:47:56;;;;;;;9.43;3.80;;;;;;;16.68;88.05;99887.31;5040851;28;20045;-72
2021/07/12 00:50:25;;;;;;;7.60;3.90;;;;;;;16.69;87.97;99886.31;5041694;28;20053;-74
2021/07/12 00:52:52;;;;;;;5.55;3.45;;;;;;;16.67;87.67;99880.22;5041073;28;20107;-76
2021/07/12 00:55:27;;;;;;;5.25;4.05;;;;;;;16.72;87.23;99889.75;5039379;28;20084;-72
2021/07/12 00:57:54;;;;;;;7.63;4.35;;;;;;;16.68;87.71;99878.38;5037527;28;20362;-74
2021/07/12 01:00:24;;;;;;;8.85;4.47;;;;;;;16.76;86.99;99874.97;5037207;28;20076;-75
2021/07/12 01:02:51;;;;;;;7.30;4.60;;;;;;;16.73;86.49;99873.44;5037429;28;20045;-73
2021/07/12 01:05:20;;;;;;;6.95;4.18;;;;;;;16.64;87.43;99864.34;5036927;28;20066;-73
2021/07/12 01:07:47;;;;;;;5.80;3.65;;;;;;;16.61;87.38;99867.31;5037220;28;20136;-75
2021/07/12 01:10:17;;;;;;;8.73;4.30;;;;;;;16.59;87.73;99863.91;5037061;28;20060;-74
2021/07/12 01:13:02;;;;;;;7.05;3.53;;;;;;;16.60;87.63;99868.31;5036864;28;20431;-72
2021/07/12 01:15:43;;;;;;;4.47;3.17;;;;;;;16.62;87.68;99870.88;5036787;28;20053;-73
2021/07/12 01:18:45;;;;;;;7.18;3.65;;;;;;;16.64;87.16;99866.19;5036992;28;20053;-74
2021/07/12 01:21:37;;;;;;;5.20;3.35;;;;;;;16.60;87.22;99857.53;5021193;28;20312;-75
2021/07/12 01:24:41;;;;;;;4.35;3.20;;;;;;;16.72;85.42;99862.78;5017282;28;20122;-72
2021/07/12 01:27:42;;;;;;;3.35;2.60;;;;;;;16.76;85.53;99858.81;5016100;28;20464;-71
2021/07/12 01:30:54;;;;;;;3.47;2.40;;;;;;;16.80;84.93;99863.78;5017204;28;20058;-75
2021/07/12 01:33:28;;;;;;;3.85;2.60;;;;;;;16.83;84.53;99868.03;5015166;28;20053;-72
2021/07/12 01:36:02;;;;;;;2.80;2.20;;;;;;;16.84;84.66;99856.28;5016849;28;20054;-75
2021/07/12 01:38:47;;;;;;;3.08;2.70;;;;;;;16.88;84.52;99859.53;5016677;28;20053;-74
2021/07/12 01:41:31;;;;;;;9.85;2.63;;;;;;;16.79;84.59;99858.53;5015896;28;20058;-72
2021/07/12 01:44:03;;;;;;;2.83;2.30;;;;;;;16.78;84.60;99856.84;5016785;28;20058;-74
2021/07/12 01:46:35;;;;;;;3.90;2.28;;;;;;;16.80;84.65;99865.63;5016691;28;20131;-73
2021/07/12 01:49:12;;;;;;;4.25;2.58;;;;;;;16.67;84.79;99845.19;5016762;28;20046;-74
2021/07/12 01:51:49;;;;;;;5.53;2.50;;;;;;;16.73;84.79;99851.00;5048515;28;20104;-74
2021/07/12 01:54:31;;;;;;;5.68;2.75;;;;;;;16.75;84.60;99844.50;5048458;28;20057;-72
2021/07/12 01:57:05;;;;;;;3.42;2.08;;;;;;;16.70;84.62;99844.94;5016292;28;20046;-73
2021/07/12 01:59:56;;;;;;;2.67;1.98;;;;;;;16.68;84.63;99844.19;5016650;28;20060;-73
2021/07/12 02:02:28;;;;;;;2.55;1.63;;;;;;;16.76;83.63;99842.63;5016463;28;20050;-72
2021/07/12 02:05:09;;;;;;;2.47;1.95;;;;;;;16.60;84.13;99817.13;5015259;28;20064;-75
2021/07/12 02:07:37;;;;;;;3.22;2.20;;;;;;;16.63;83.59;99819.53;5016048;28;20112;-71
2021/07/12 02:10:06;;;;;;;3.67;2.03;;;;;;;16.55;84.11;99811.28;5016485;28;20099;-72
2021/07/12 02:12:35;;;;;;;5.43;1.90;;;;;;;16.69;84.17;99827.03;5016435;28;20053;-72
2021/07/12 02:15:04;;;;;;;3.38;2.05;;;;;;;16.72;83.35;99833.16;5016134;28;20402;-74
2021/07/12 02:17:32;;;;;;;2.13;1.83;;;;;;;16.66;84.03;99830.03;5016109;28;20049;-75
2021/07/12 02:20:00;;;;;;;2.13;1.90;;;;;;;16.66;84.20;99807.59;5019018;28;20446;-72
2021/07/12 02:22:29;;;;;;;2.17;1.85;;;;;;;16.66;84.00;99811.16;5036001;28;20064;-74
2021/07/12 02:24:57;;;;;;;2.17;1.90;;;;;;;16.61;83.64;99807.19;5040025;28;20422;-72
2021/07/12 02:27:24;;;;;;;3.15;1.83;;;;;;;16.60;83.78;99803.66;5043072;28;20057;-71
2021/07/12 02:29:53;;;;;;;3.17;1.98;;;;;;;16.62;84.71;99809.72;5043635;28;19924;-73
2021/07/12 02:32:20;;;;;;;2.60;1.90;;;;;;;16.55;84.56;99804.06;5036055;28;20049;-75
2021/07/12 02:34:50;;;;;;;2.72;2.00;;;;;;;16.55;84.31;99800.50;5034202;28;20378;-75
2021/07/12 02:37:18;;;;;;;2.80;1.98;;;;;;;16.46;84.58;99802.25;5034838;28;20053;-75
2021/07/12 02:39:46;;;;;;;2.92;2.10;;;;;;;16.47;84.56;99800.38;5035422;28;20501;-75
2021/07/12 02:42:13;;;;;;;6.63;2.38;;;;;;;16.53;83.62;99810.59;5035637;28;20059;-72
2021/07/12 02:44:45;;;;;;;6.18;1.92;;;;;;;16.53;84.27;99815.97;5035630;28;20054;-74
2021/07/12 02:47:12;;;;;;;7.18;2.08;;;;;;;16.43;85.39;99806.06;5035195;28;20446;-75
2021/07/12 02:49:39;;;;;;;5.15;2.03;;;;;;;16.43;85.20;99813.28;5035475;28;20055;-75
2021/07/12 02:52:21;;;;;;;2.20;1.88;;;;;;;16.40;85.58;99817.09;5035423;28;20050;-74
2021/07/12 02:54:51;;;;;;;2.70;2.00;;;;;;;16.22;86.20;99802.59;5035638;28;20049;-73
2021/07/12 02:57:19;;;;;;;4.33;1.97;;;;;;;16.29;86.04;99814.56;5034138;28;20053;-73
2021/07/12 02:59:46;;;;;;;2.92;2.63;;;;;;;16.23;85.80;99804.34;5035416;28;20095;-72
2021/07/12 03:02:12;;;;;;;3.13;2.15;;;;;;;16.20;86.35;99796.53;5035040;28;20336;-71
2021/07/12 03:04:39;;;;;;;3.83;2.38;;;;;;;16.14;86.35;99796.09;5033897;28;20057;-74
2021/07/12 03:07:18;;;;;;;4.25;2.20;;;;;;;16.19;86.04;99803.75;5035199;28;20099;-73
2021/07/12 03:09:47;;;;;;;6.18;2.53;;;;;;;16.13;86.04;99788.16;5035033;28;20049;-75
2021/07/12 03:12:27;;;;;;;5.22;2.78;;;;;;;16.13;85.56;99789.00;5034929;28;20435;-72
2021/07/12 03:15:06;;;;;;;3.35;2.47;;;;;;;16.11;86.47;99791.00;5035288;28;20057;-74
2021/07/12 03:17:38;;;;;;;3.30;2.45;;;;;;;16.09;86.50;99787.59;5035268;28;20064;-74
2021/07/12 03:20:07;;;;;;;8.35;2.45;;;;;;;16.04;87.43;99788.97;5034889;28;20056;-72
2021/07/12 03:22:36;;;;;;;6.25;2.55;;;;;;;16.01;87.65;99784.72;5034816;28;20144;-74
2021/07/12 03:25:08;;;;;;;6.63;2.10;;;;;;;16.04;87.23;99784.47;5034131;28;20057;-74
2021/07/12 03:27:36;;;;;;;6.05;2.47;;;;;;;15.99;87.43;99776.81;5034777;28;20049;-73
2021/07/12 03:30:06;;;;;;;2.88;2.42;;;;;;;15.87;87.65;99765.25;5034759;28;20087;-75
2021/07/12 03:32:33;;;;;;;2.38;2.17;;;;;;;15.87;87.88;99767.09;5034984;28;20053;-73
2021/07/12 03:35:01;;;;;;;3.08;2.55;;;;;;;15.82;88.33;99766.66;5033695;28;20107;-74
2021/07/12 03:37:28;;;;;;;7.22;2.42;;;;;;;15.73;88.88;99762.94;5034784;28;20049;-73
2021/07/12 03:39:56;;;;;;;5.07;2.70;;;;;;;15.71;89.19;99756.88;5034685;28;20049;-74
2021/07/12 03:42:23;;;;;;;5.53;2.75;;;;;;;15.70;89.49;99760.56;5034919;28;20053;-72
2021/07/12 03:44:52;;;;;;;5.70;3.10;;;;;;;15.65;89.54;99757.41;5034982;28;20058;-73
2021/07/12 03:47:30;;;;;;;3.67;2.30;;;;;;;15.68;89.41;99762.53;5036396;28;20107;-72
2021/07/12 03:50:15;;;;;;;3.67;2.60;;;;;;;15.65;89.79;99765.47;5037570;28;20107;-72
2021/07/12 03:52:46;;;;;;;5.60;2.47;;;;;;;15.68;89.59;99759.84;5038786;28;20050;-73
2021/07/12 03:55:15;;;;;;;7.57;2.75;;;;;;;15.71;89.45;99756.88;5038731;28;20049;-73
2021/07/12 03:57:43;;;;;;;5.03;2.80;;;;;;;15.67;89.39;99758.97;5038305;28;20501;-74
2021/07/12 04:00:14;;;;;;;5.28;2.22;;;;;;;15.66;89.42;99753.72;5038497;28;20041;-74
2021/07/12 04:02:41;;;;;;;4.00;2.70;;;;;;;15.65;90.02;99757.41;5038423;28;20076;-75
2021/07/12 04:05:09;;;;;;;5.93;2.60;;;;;;;15.65;89.94;99762.78;5037957;28;20054;-73
2021/07/12 04:07:36;;;;;;;3.35;2.28;;;;;;;15.58;89.86;99759.81;5038218;28;20053;-73
2021/07/12 04:10:05;;;;;;;3.15;2.40;;;;;;;15.51;89.95;99754.09;5038026;28;20045;-73
2021/07/12 04:12:32;;;;;;;4.57;2.20;;;;;;;15.59;90.14;99756.97;5038124;28;20061;-72
2021/07/12 04:14:59;;;;;;;4.47;2.50;;;;;;;15.55;90.40;99758.25;5038250;28;20057;-72
2021/07/12 04:17:26;;;;;;;5.65;2.45;;;;;;;15.51;90.76;99747.91;5038422;28;20127;-73
2021/07/12 04:19:53;;;;;;;5.72;2.20;;;;;;;15.53;90.73;99741.38;5035608;28;20049;-74
2021/07/12 04:22:20;;;;;;;6.25;2.85;;;;;;;15.51;91.30;99750.59;5018428;28;20057;-73
2021/07/12 04:24:46;;;;;;;3.65;2.53;;;;;;;15.51;91.21;99745.22;5018082;28;20050;-72
2021/07/12 04:27:13;;;;;;;5.65;2.83;;;;;;;15.57;91.15;99750.88;5018065;28;20073;-72
2021/07/12 04:29:39;;;;;;;4.35;2.08;;;;;;;15.61;91.07;99743.38;5017087;28;20046;-72
2021/07/12 04:32:07;;;;;;;6.15;2.30;;;;;;;15.60;90.57;99745.22;5018278;28;20053;-71
2021/07/12 04:34:33;;;;;;;6.18;2.45;;;;;;;15.61;90.59;99746.94;5016848;28;20054;-71
2021/07/12 04:37:00;;;;;;;4.10;2.47;;;;;;;15.68;90.67;99751.78;5016996;28;20049;-74
2021/07/12 04:39:27;;;;;;;2.65;2.20;;;;;;;15.73;90.80;99746.81;5017764;28;20049;-74
2021/07/12 04:41:54;;;;;;;3.40;2.83;;;;;;;15.58;90.68;99725.69;5018083;28;20054;-72
2021/07/12 04:44:21;;;;;;;8.85;3.78;;;;;;;15.82;90.42;99754.06;5018063;28;20049;-72
2021/07/12 04:46:49;;;;;;;5.38;2.50;;;;;;;15.82;90.46;99759.47;5017728;28;20046;-75
2021/07/12 04:49:17;;;;;;;3.28;2.28;;;;;;;15.85;90.32;99752.94;5017683;28;20414;-72
2021/07/12 04:51:44;;;;;;;4.75;2.22;;;;;;;15.86;90.65;99754.66;5017948;28;20395;-73
2021/07/12 04:54:11;;;;;;;5.18;2.40;;;;;;;15.82;90.90;99743.31;5017827;28;20053;-74
2021/07/12 04:56:38;;;;;;;3.78;2.58;;;;;;;15.92;90.67;99750.56;5018062;28;20333;-72
2021/07/12 04:59:07;;;;;;;5.25;2.47;;;;;;;15.87;91.12;99742.88;5017885;28;20046;-73
2021/07/12 05:01:35;;;;;;;4.30;2.40;;;;;;;15.86;90.92;99733.94;5016776;28;20073;-72
2021/07/12 05:04:04;;;;;;;3.78;2.47;;;;;;;15.99;90.62;99749.03;5015507;28;20414;-74
2021/07/12 05:06:31;;;;;;;8.65;2.83;;;;;;;16.05;90.14;99737.72;5015992;28;20116;-74
2021/07/12 05:08:58;;;;;;;3.65;2.33;;;;;;;16.12;89.65;99746.09;5016246;28;20050;-74
2021/07/12 05:11:25;;;;;;;2.17;1.90;;;;;;;16.15;89.78;99740.41;5016241;28;20316;-75
2021/07/12 05:13:53;;;;;;;6.15;2.63;;;;;;;16.19;89.55;99738.28;5016181;28;20450;-72
2021/07/12 05:16:20;;;;;;;3.22;2.80;;;;;;;16.19;89.00;99730.22;5016969;28;20058;-72
2021/07/12 05:18:47;;;;;;;2.92;2.28;;;;;;;16.27;88.82;99727.66;5016113;28;20081;-74
2021/07/12 05:21:14;;;;;;;6.28;2.97;;;;;;;16.30;88.27;99724.69;5029132;28;20053;-74
2021/07/12 05:23:41;;;;;;;4.03;3.10;;;;;;;16.36;87.97;99716.06;5036766;28;20111;-73
2021/07/12 05:26:08;;;;;;;8.20;3.25;;;;;;;16.40;88.78;99712.06;5036953;28;20099;-74
2021/07/12 05:28:37;;;;;;;4.82;2.78;;;;;;;16.46;88.33;99713.34;5036666;28;20703;-75
2021/07/12 05:31:06;;;;;;;3.88;2.70;;;;;;;16.47;87.89;99719.56;5036589;28;20057;-72
2021/07/12 05:33:33;;;;;;;5.28;2.75;;;;;;;16.57;86.18;99728.50;5036686;28;20077;-74
2021/07/12 05:36:00;;;;;;;4.40;2.47;;;;;;;16.56;85.78;99722.25;5036825;28;20057;-73
2021/07/12 05:38:27;;;;;;;3.63;2.70;;;;;;;16.46;86.38;99699.03;5036675;28;20076;-73
2021/07/12 05:40:54;;;;;;;6.88;2.75;;;;;;;16.58;86.18;99724.81;5036786;28;20054;-74
2021/07/12 05:43:20;;;;;;;5.43;3.35;;;;;;;16.60;86.18;99712.03;5036455;28;20111;-72
2021/07/12 05:45:47;;;;;;;4.13;3.28;;;;;;;16.56;85.31;99710.63;5035944;28;20138;-74
2021/07/12 05:48:14;;;;;;;7.05;3.20;;;;;;;16.64;85.92;99715.28;5036132;28;20068;-75
2021/07/12 05:50:41;;;;;;;4.93;3.30;;;;;;;16.58;86.18;99705.97;5033203;28;20053;-73
2021/07/12 05:53:08;;;;;;;5.20;3.10;;;;;;;16.60;85.36;99712.03;5035956;28;20390;-72
2021/07/12 05:55:35;;;;;;;2.92;2.35;;;;;;;16.60;85.49;99692.34;5035661;28;20095;-72
2021/07/12 05:58:02;;;;;;;3.65;2.65;;;;;;;16.64;86.08;99705.38;5033233;28;20111;-74
2021/07/12 06:00:29;;;;;;;8.18;2.78;;;;;;;16.65;86.10;99715.16;5035982;28;20045;-75
2021/07/12 06:02:55;;;;;;;5.13;2.67;;;;;;;16.66;85.15;99703.38;5024927;28;20120;-71
2021/07/12 06:05:22;;;;;;;4.93;2.17;;;;;;;16.69;85.30;99703.06;5034315;28;20057;-73
2021/07/12 06:07:49;;;;;;;8.88;2.60;;;;;;;16.77;85.04;99705.06;5035568;28;20049;-76
2021/07/12 06:10:15;;;;;;;2.50;2.03;;;;;;;16.78;85.21;99709.44;5033830;28;20045;-70
2021/07/12 06:12:42;;;;;;;4.60;2.20;;;;;;;16.80;85.49;99690.44;5016095;28;20112;-72
2021/07/12 06:15:10;;;;;;;3.97;2.00;;;;;;;16.92;84.94;99701.91;5015678;28;20507;-71
2021/07/12 06:17:38;;;;;;;2.63;2.08;;;;;;;17.07;83.65;99699.63;5014811;28;20435;-72
2021/07/12 06:20:07;;;;;;;4.32;1.85;;;;;;;17.21;82.53;99698.31;5019684;28;20049;-72
2021/07/12 06:22:34;;;;;;;2.28;1.90;;;;;;;17.26;82.52;99692.47;5035888;28;20053;-72
2021/07/12 06:25:02;;;;;;;5.22;1.90;;;;;;;17.28;83.35;99701.25;5035766;28;20143;-73
2021/07/12 06:27:29;;;;;;;7.18;2.03;;;;;;;17.33;83.20;99710.56;5035619;28;20059;-72
2021/07/12 06:29:55;;;;;;;2.75;1.73;;;;;;;17.46;82.19;99701.28;5017997;28;20049;-72
2021/07/12 06:32:22;;;;;;;2.30;1.70;;;;;;;17.47;82.66;99706.53;5034420;28;20087;-72
2021/07/12 06:34:48;;;;;;;3.03;2.25;;;;;;;17.65;80.78;99697.63;5035446;28;20107;-71
2021/07/12 06:37:15;;;;;;;3.20;1.85;;;;;;;17.68;81.15;99704.56;5034566;28;20053;-73
2021/07/12 06:39:42;;;;;;;3.15;1.73;;;;;;;17.75;79.86;99702.97;5035678;28;20057;-72
2021/07/12 06:42:08;;;;;;;3.10;1.55;;;;;;;17.83;80.09;99716.56;5035337;28;20095;-72
2021/07/12 06:44:35;;;;;;;4.07;1.80;;;;;;;17.91;78.79;99713.97;5035431;28;20049;-73
2021/07/12 06:47:03;;;;;;;2.42;1.60;;;;;;;17.85;79.88;99698.38;5034334;28;20049;-72
2021/07/12 06:49:29;;;;;;;2.70;1.55;;;;;;;18.03;79.07;99711.03;5034425;28;20049;-72
2021/07/12 06:51:56;;;;;;;1.73;1.63;;;;;;;17.94;79.85;99696.59;5035703;28;20049;-76
2021/07/12 06:54:23;;;;;;;2.22;1.50;;;;;;;18.00;79.83;99687.03;5035275;28;20053;-76
2021/07/12 06:56:49;;;;;;;5.47;2.10;;;;;;;18.09;78.58;99701.50;5034300;28;20103;-76
2021/07/12 06:59:16;;;;;;;2.53;1.70;;;;;;;18.03;78.48;99679.47;5034312;28;20435;-77
2021/07/12 07:01:44;;;;;;;2.67;2.05;;;;;;;18.14;77.86;99691.91;5035418;28;20398;-78
2021/07/12 07:04:12;;;;;;;4.15;1.98;;;;;;;18.14;77.28;99686.53;5035561;28;20060;-79
2021/07/12 07:06:39;;;;;;;4.40;1.95;;;;;;;18.24;77.71;99691.84;5035409;28;20096;-81
2021/07/12 07:09:06;;;;;;;5.25;1.95;;;;;;;18.21;78.57;99689.47;5035152;28;20379;-75
2021/07/12 07:11:34;;;;;;;3.13;2.13;;;;;;;18.35;78.62;99689.91;5034930;28;20103;-76
2021/07/12 07:14:01;;;;;;;4.57;2.42;;;;;;;18.48;78.54;99684.97;5035369;28;20059;-74
2021/07/12 07:16:28;;;;;;;2.15;1.63;;;;;;;18.59;77.21;99687.38;5033943;28;20057;-72
2021/07/12 07:18:55;;;;;;;5.88;1.90;;;;;;;18.66;76.60;99676.81;5035351;28;20077;-73
2021/07/12 07:21:21;;;;;;;5.95;2.13;;;;;;;18.76;76.56;99683.94;5035764;28;20057;-77
2021/07/12 07:23:48;;;;;;;3.28;2.08;;;;;;;18.78;76.00;99677.38;5039247;28;20351;-73
2021/07/12 07:26:15;;;;;;;3.08;2.20;;;;;;;18.93;76.65;99663.28;5039947;28;20080;-72
2021/07/12 07:28:42;;;;;;;4.82;2.13;;;;;;;18.92;77.50;99667.00;5041567;28;20107;-71
2021/07/12 07:31:09;;;;;;;3.90;2.08;;;;;;;19.11;74.47;99676.75;5042293;28;20050;-73
2021/07/12 07:33:35;;;;;;;4.03;2.30;;;;;;;19.05;76.24;99667.44;5040922;28;20084;-72
2021/07/12 07:36:03;;;;;;;13.60;2.10;;;;;;;19.15;75.26;99661.91;5039203;28;20057;-74
2021/07/12 07:38:29;;;;;;;3.53;1.85;;;;;;;19.30;75.31;99651.31;5038724;28;20084;-72
2021/07/12 07:40:56;;;;;;;4.60;2.03;;;;;;;19.30;75.57;99659.44;5038847;28;20045;-73
2021/07/12 07:43:23;;;;;;;5.43;2.10;;;;;;;19.41;75.47;99656.41;5038657;28;20045;-72
2021/07/12 07:45:51;;;;;;;3.65;1.98;;;;;;;19.43;75.74;99653.53;5037796;28;20332;-68
2021/07/12 07:48:18;;;;;;;4.47;1.70;;;;;;;19.50;75.24;99642.94;5038784;28;20056;-69
2021/07/12 07:50:45;;;;;;;4.78;1.73;;;;;;;19.50;75.51;99640.22;5039689;28;20046;-72
2021/07/12 07:53:12;;;;;;;2.03;1.83;;;;;;;19.54;73.33;99644.28;5038916;28;20092;-74
2021/07/12 07:55:40;;;;;;;4.05;1.73;;;;;;;19.75;71.80;99640.25;5038623;28;20057;-72
2021/07/12 07:58:06;;;;;;;3.47;1.80;;;;;;;19.90;71.12;99637.75;5039028;28;20450;-73
2021/07/12 08:00:34;;;;;;;2.10;1.70;;;;;;;19.91;70.02;99621.34;5038688;28;20053;-71
2021/07/12 08:03:00;;;;;;;4.28;2.30;;;;;;;19.97;70.86;99621.69;5038908;28;20433;-72
2021/07/12 08:05:27;;;;;;;2.97;2.00;;;;;;;19.99;72.31;99609.69;5039021;28;20057;-73
2021/07/12 08:07:55;;;;;;;4.72;1.95;;;;;;;19.98;72.04;99601.75;5039272;28;20057;-69
2021/07/12 08:10:23;;;;;;;3.20;1.70;;;;;;;20.02;71.17;99592.25;5037724;28;20131;-71
2021/07/12 08:12:50;;;;;;;4.30;1.80;;;;;;;20.22;68.60;99601.72;5038654;28;20053;-73
2021/07/12 08:15:18;;;;;;;1.77;1.67;;;;;;;20.35;70.22;99593.06;5037580;28;20069;-73
2021/07/12 08:17:47;;;;;;;4.15;2.03;;;;;;;20.43;70.08;99594.91;5038519;28;20049;-73
2021/07/12 08:20:15;;;;;;;7.82;2.10;;;;;;;20.45;69.74;99598.31;5038229;28;20328;-73
2021/07/12 08:22:49;;;;;;;2.85;1.73;;;;;;;20.47;69.35;99585.44;5037689;28;20050;-73
2021/07/12 08:25:16;;;;;;;3.60;2.05;;;;;;;20.51;69.65;99574.22;5037827;28;20401;-73
2021/07/12 08:27:43;;;;;;;3.45;2.00;;;;;;;20.57;69.41;99589.78;5037731;28;20114;-73
2021/07/12 08:30:11;;;;;;;6.03;1.73;;;;;;;20.63;67.94;99580.97;5036829;28;20187;-73
2021/07/12 08:32:38;;;;;;;2.17;1.65;;;;;;;20.70;68.64;99570.28;5037058;28;20057;-73
2021/07/12 08:35:06;;;;;;;5.93;2.30;;;;;;;20.79;68.55;99576.50;5037868;28;20053;-73
2021/07/12 08:37:33;;;;;;;3.40;1.98;;;;;;;20.93;68.17;99578.53;5037823;28;20049;-73
2021/07/12 08:40:00;;;;;;;3.78;1.95;;;;;;;20.97;67.17;99569.00;5037534;28;20053;-73
2021/07/12 08:42:27;;;;;;;4.05;1.95;;;;;;;20.98;68.50;99562.56;5036698;28;20057;-73
2021/07/12 08:44:55;;;;;;;2.40;1.70;;;;;;;21.11;67.80;99574.72;5037649;28;20053;-73
2021/07/12 08:47:21;;;;;;;5.30;1.88;;;;;;;21.28;64.70;99576.34;5037723;28;20053;-73
2021/07/12 08:49:48;;;;;;;3.67;1.58;;;;;;;21.31;65.12;99580.56;5037635;28;20077;-73
2021/07/12 08:52:16;;;;;;;2.90;1.55;;;;;;;21.35;67.89;99575.63;5037605;28;20123;-73
2021/07/12 08:54:43;;;;;;;3.20;1.75;;;;;;;21.54;65.14;99569.72;5037528;28;20054;-73
2021/07/12 08:57:10;;;;;;;7.43;2.00;;;;;;;21.52;66.70;99560.06;5037302;28;20076;-73
2021/07/12 08:59:42;;;;;;;4.25;1.70;;;;;;;21.67;65.29;99566.41;5036551;28;20045;-78
2021/07/12 09:02:11;;;;;;;9.10;2.00;;;;;;;21.80;64.44;99563.09;5036703;28;20049;-78
2021/07/12 09:04:46;;;;;;;4.90;1.85;;;;;;;21.98;65.24;99556.50;5043286;28;20065;-79
2021/07/12 09:07:22;;;;;;;4.97;1.88;;;;;;;22.04;61.68;99563.94;5027753;28;20045;-78
2021/07/12 09:10:05;;;;;;;2.25;1.60;;;;;;;22.20;60.75;99551.22;5039726;28;20052;-79
2021/07/12 09:12:41;;;;;;;2.42;1.70;;;;;;;22.44;60.40;99552.00;5037568;28;20103;-78
2021/07/12 09:15:12;;;;;;;2.90;1.70;;;;;;;22.43;61.15;99553.88;5037391;28;20057;-77
2021/07/12 09:17:43;;;;;;;4.85;1.52;;;;;;;22.49;61.74;99550.41;5037522;28;20064;-78
2021/07/12 09:20:22;;;;;;;2.53;1.60;;;;;;;22.60;59.10;99548.28;5036217;28;20037;-78
2021/07/12 09:22:49;;;;;;;2.35;1.50;;;;;;;22.63;60.01;99550.63;5037063;28;20099;-79
2021/07/12 09:25:15;;;;;;;3.90;1.40;;;;;;;22.63;61.19;99543.31;5037000;28;20127;-75
2021/07/12 09:27:43;;;;;;;3.45;1.88;;;;;;;22.59;61.49;99549.28;5037132;28;20053;-76
2021/07/12 09:30:12;;;;;;;5.93;1.70;;;;;;;22.57;60.82;99548.66;5036838;28;20057;-77
2021/07/12 09:32:41;;;;;;;2.95;1.73;;;;;;;22.59;60.31;99547.44;5036863;28;20067;-77
2021/07/12 09:35:12;;;;;;;3.00;1.45;;;;;;;22.45;61.93;99548.25;5035476;28;20080;-71
2021/07/12 09:37:41;;;;;;;3.78;1.63;;;;;;;22.46;62.00;99550.78;5036644;28;20053;-69
2021/07/12 09:40:14;;;;;;;3.95;1.60;;;;;;;22.50;60.25;99553.97;5036705;28;20081;-77
2021/07/12 09:42:51;;;;;;;3.33;1.70;;;;;;;22.63;60.98;99551.47;5036785;28;20045;-78
2021/07/12 09:45:21;;;;;;;8.90;1.75;;;;;;;22.57;62.37;99556.81;5035615;28;20111;-77
2021/07/12 09:47:49;;;;;;;2.10;1.58;;;;;;;22.74;60.29;99550.16;5036364;28;20049;-78
2021/07/12 09:50:23;;;;;;;4.13;2.15;;;;;;;22.82;59.63;99535.59;5036128;28;20049;-78
2021/07/12 09:52:52;;;;;;;4.53;1.85;;;;;;;23.00;59.90;99545.25;5068553;28;20123;-78
2021/07/12 09:55:24;;;;;;;4.13;1.80;;;;;;;23.10;60.80;99537.59;5036374;28;20080;-79
2021/07/12 09:58:07;;;;;;;3.10;2.00;;;;;;;23.30;61.81;99539.75;5035910;28;20057;-79
2021/07/12 10:00:39;;;;;;;4.13;1.63;;;;;;;23.46;57.93;99547.69;5036956;28;20061;-77
2021/07/12 10:03:06;;;;;;;6.03;1.95;;;;;;;23.51;58.36;99532.63;5036406;28;20377;-77
2021/07/12 10:05:33;;;;;;;3.92;2.17;;;;;;;23.66;58.95;99535.28;5035098;28;20123;-77
2021/07/12 10:08:00;;;;;;;1.98;1.70;;;;;;;23.79;57.99;99540.84;5036123;28;20055;-77
2021/07/12 10:10:27;;;;;;;7.47;1.85;;;;;;;23.90;57.10;99527.75;5035996;28;20167;-76
2021/07/12 10:12:54;;;;;;;6.97;2.60;;;;;;;24.21;58.15;99540.16;5036252;28;20049;-76
2021/07/12 10:15:20;;;;;;;7.57;2.10;;;;;;;24.42;58.26;99542.81;5035811;28;20091;-76
2021/07/12 10:17:47;;;;;;;3.50;2.22;;;;;;;24.49;55.75;99540.16;5035953;28;20051;-77
2021/07/12 10:20:16;;;;;;;8.35;2.28;;;;;;;24.45;55.72;99541.59;5029605;28;20111;-77
2021/07/12 10:22:43;;;;;;;2.88;2.20;;;;;;;24.43;56.21;99540.94;5016465;28;20078;-77
2021/07/12 10:25:17;;;;;;;4.07;2.25;;;;;;;24.36;55.25;99543.63;5014888;28;20049;-76
2021/07/12 10:27:51;;;;;;;2.88;1.73;;;;;;;24.31;56.99;99528.91;5015816;28;20054;-77
2021/07/12 10:30:39;;;;;;;5.78;2.30;;;;;;;24.41;56.89;99537.59;5015878;28;20046;-77
2021/07/12 10:33:11;;;;;;;7.05;2.35;;;;;;;24.49;57.77;99531.97;5015882;28;20447;-76
2021/07/12 10:35:41;;;;;;;4.25;2.00;;;;;;;24.60;58.10;99532.44;5015764;28;20431;-76
2021/07/12 10:38:10;;;;;;;5.50;2.00;;;;;;;24.67;56.17;99538.75;5016099;28;20049;-77
2021/07/12 10:40:54;;;;;;;5.70;2.35;;;;;;;24.73;57.40;99535.22;5015812;28;20053;-77
2021/07/12 10:43:42;;;;;;;3.22;2.17;;;;;;;24.75;55.97;99535.88;5016169;28;20054;-76
2021/07/12 10:46:30;;;;;;;4.75;2.40;;;;;;;24.77;55.92;99533.78;5015562;28;20049;-77
2021/07/12 10:48:58;;;;;;;4.25;2.20;;;;;;;24.76;57.04;99533.97;5015660;28;20084;-76
2021/07/12 10:51:28;;;;;;;3.50;1.80;;;;;;;24.72;56.44;99527.25;5014487;28;20049;-81
2021/07/12 10:54:11;;;;;;;4.53;2.33;;;;;;;24.51;55.79;99529.88;5015685;28;20269;-77
2021/07/12 10:57:00;;;;;;;5.72;2.10;;;;;;;24.47;57.39;99536.78;5014084;28;20049;-76
2021/07/12 10:59:33;;;;;;;2.80;2.25;;;;;;;24.45;56.58;99541.59;5015582;28;20054;-77
2021/07/12 11:02:22;;;;;;;2.67;2.10;;;;;;;24.31;56.30;99539.81;5015654;28;20061;-73
2021/07/12 11:05:06;;;;;;;5.43;2.22;;;;;;;24.33;58.18;99535.00;5014425;28;20050;-72
2021/07/12 11:07:41;;;;;;;3.70;2.22;;;;;;;24.35;57.70;99538.38;5015694;28;20046;-70
2021/07/12 11:10:23;;;;;;;2.58;2.20;;;;;;;24.27;56.60;99539.38;5015217;28;20049;-71
2021/07/12 11:12:55;;;;;;;6.85;2.25;;;;;;;24.31;57.54;99540.66;5015297;28;20100;-69
2021/07/12 11:15:21;;;;;;;2.40;2.08;;;;;;;24.32;57.71;99541.50;5015138;28;20123;-71
2021/07/12 11:17:56;;;;;;;2.97;2.25;;;;;;;24.35;55.83;99535.66;5015539;28;20057;-71
2021/07/12 11:20:52;;;;;;;8.23;2.45;;;;;;;24.19;57.32;99534.09;5021397;28;20351;-73
2021/07/12 11:23:37;;;;;;;3.70;1.70;;;;;;;24.27;56.42;99537.50;5034910;28;20054;-73
2021/07/12 11:26:24;;;;;;;2.80;1.90;;;;;;;24.19;56.73;99534.09;5034717;28;20103;-72
2021/07/12 11:28:56;;;;;;;2.27;2.03;;;;;;;24.19;56.25;99531.34;5033666;28;20186;-69
2021/07/12 11:31:38;;;;;;;4.03;2.00;;;;;;;24.17;57.47;99528.00;5034826;28;20041;-70
2021/07/12 11:34:06;;;;;;;4.32;1.98;;;;;;;24.23;56.39;99525.31;5033774;28;20084;-71
2021/07/12 11:36:33;;;;;;;2.38;1.80;;;;;;;24.10;56.79;99517.03;5033716;28;20372;-72
2021/07/12 11:38:59;;;;;;;2.50;2.10;;;;;;;24.13;56.46;99527.56;5034895;28;20072;-71
2021/07/12 11:41:27;;;;;;;3.67;2.28;;;;;;;24.24;58.01;99524.25;5033654;28;20486;-70
2021/07/12 11:44:11;;;;;;;2.38;1.88;;;;;;;24.23;56.80;99522.56;5033565;28;20050;-68
2021/07/12 11:46:39;;;;;;;3.25;2.20;;;;;;;24.33;57.54;99521.34;5034811;28;20061;-69
2021/07/12 11:49:19;;;;;;;3.78;1.92;;;;;;;24.32;57.61;99515.09;5034673;28;20501;-73